createdAt,value
2023-05-04T00:00:43.190Z,100.00
2023-05-04T00:01:44.708Z,100.00
2023-05-04T00:02:46.314Z,100.00
2023-05-04T00:03:48.644Z,100.00
2023-05-04T00:04:54.206Z,100.00
2023-05-04T00:05:56.194Z,100.00
2023-05-04T00:06:57.703Z,100.00
2023-05-04T00:07:59.292Z,100.00
2023-05-04T00:09:00.897Z,100.00
2023-05-04T00:10:02.776Z,100.00
2023-05-04T00:11:05.200Z,100.00
2023-05-04T00:12:08.232Z,100.00
2023-05-04T00:13:10.019Z,100.00
2023-05-04T00:14:11.738Z,100.00
2023-05-04T00:15:13.295Z,100.00
2023-05-04T00:16:14.940Z,100.00
2023-05-04T00:17:16.980Z,100.00
2023-05-04T00:18:18.505Z,100.00
2023-05-04T00:19:20.061Z,100.00
2023-05-04T00:20:21.719Z,100.00
2023-05-04T00:21:23.269Z,99.82
2023-05-04T00:22:24.871Z,99.63
2023-05-04T00:23:26.421Z,99.65
2023-05-04T00:24:28.739Z,99.17
2023-05-04T00:25:30.700Z,99.41
2023-05-04T00:26:32.333Z,99.43
2023-05-04T00:27:35.119Z,99.75
2023-05-04T00:28:36.746Z,99.27
2023-05-04T00:29:38.404Z,98.98
2023-05-04T00:30:39.905Z,98.96
2023-05-04T00:31:41.524Z,98.88
2023-05-04T00:32:43.202Z,98.00
2023-05-04T00:33:45.754Z,98.10
2023-05-04T00:34:48.541Z,97.90
2023-05-04T00:35:50.759Z,97.97
2023-05-04T00:36:52.532Z,97.83
2023-05-04T00:37:54.035Z,97.36
2023-05-04T00:38:56.042Z,97.73
2023-05-04T00:39:58.181Z,98.51
2023-05-04T00:40:59.791Z,99.13
2023-05-04T00:42:01.814Z,99.52
2023-05-04T00:43:03.394Z,99.91
2023-05-04T00:44:05.964Z,99.67
2023-05-04T00:45:08.006Z,99.41
2023-05-04T00:46:11.139Z,99.90
2023-05-04T00:47:13.742Z,100.00
2023-05-04T00:48:15.802Z,100.00
2023-05-04T00:49:17.680Z,100.00
2023-05-04T00:50:19.831Z,100.00
2023-05-04T00:51:23.510Z,100.00
2023-05-04T00:52:25.212Z,100.00
2023-05-04T00:53:27.036Z,100.00
2023-05-04T00:54:29.210Z,99.45
2023-05-04T00:55:31.676Z,98.81
2023-05-04T00:56:33.757Z,98.70
2023-05-04T00:57:35.315Z,98.46
2023-05-04T00:58:37.310Z,98.48
2023-05-04T00:59:39.459Z,97.99
2023-05-04T01:00:41.522Z,97.77
2023-05-04T01:01:43.737Z,97.67
2023-05-04T01:02:45.382Z,98.09
2023-05-04T01:03:47.712Z,97.03
2023-05-04T01:04:49.506Z,97.11
2023-05-04T01:06:12.958Z,96.30
2023-05-04T01:07:26.729Z,96.43
2023-05-04T01:08:32.586Z,96.70
2023-05-04T01:09:49.965Z,97.33
2023-05-04T01:11:03.882Z,96.72
2023-05-04T01:12:05.653Z,97.00
2023-05-04T01:13:12.035Z,96.48
2023-05-04T01:14:14.929Z,96.16
2023-05-04T01:15:16.675Z,96.53
2023-05-04T01:16:18.428Z,96.00
2023-05-04T01:17:20.309Z,95.61
2023-05-04T01:18:23.353Z,95.48
2023-05-04T01:19:27.600Z,95.14
2023-05-04T01:20:29.236Z,95.69
2023-05-04T01:21:31.230Z,95.89
2023-05-04T01:22:32.924Z,96.35
2023-05-04T01:23:34.539Z,96.77
2023-05-04T01:24:36.282Z,97.20
2023-05-04T01:26:07.047Z,98.07
2023-05-04T01:27:19.241Z,97.97
2023-05-04T01:28:32.280Z,98.32
2023-05-04T01:29:48.478Z,99.28
2023-05-04T01:30:54.368Z,100.00
2023-05-04T01:31:57.075Z,100.00
2023-05-04T01:33:00.622Z,100.00
2023-05-04T01:34:03.112Z,100.00
2023-05-04T01:35:05.068Z,100.00
2023-05-04T01:36:08.035Z,100.00
2023-05-04T01:37:10.074Z,100.00
2023-05-04T01:38:11.861Z,100.00
2023-05-04T01:39:13.498Z,100.00
2023-05-04T01:40:15.765Z,100.00
2023-05-04T01:41:17.345Z,100.00
2023-05-04T01:42:19.013Z,100.00
2023-05-04T01:43:20.581Z,100.00
2023-05-04T01:44:22.149Z,100.00
2023-05-04T01:45:23.910Z,100.00
2023-05-04T01:46:25.532Z,100.00
2023-05-04T01:47:27.113Z,100.00
2023-05-04T01:48:28.709Z,100.00
2023-05-04T01:49:30.377Z,100.00
2023-05-04T01:50:32.091Z,100.00
2023-05-04T01:51:33.682Z,100.00
2023-05-04T01:52:35.249Z,100.00
2023-05-04T01:53:36.775Z,100.00
2023-05-04T01:54:38.414Z,100.00
2023-05-04T01:55:39.980Z,100.00
2023-05-04T01:56:42.148Z,100.00
2023-05-04T01:57:43.687Z,100.00
2023-05-04T01:58:45.227Z,100.00
2023-05-04T01:59:46.762Z,100.00
2023-05-04T02:00:48.340Z,100.00
2023-05-04T02:01:49.909Z,100.00
2023-05-04T02:02:51.573Z,100.00
2023-05-04T02:03:53.319Z,100.00
2023-05-04T02:04:54.966Z,100.00
2023-05-04T02:05:56.628Z,100.00
2023-05-04T02:06:58.220Z,100.00
2023-05-04T02:07:59.766Z,100.00
2023-05-04T02:09:01.329Z,100.00
2023-05-04T02:10:03.898Z,100.00
2023-05-04T02:11:05.697Z,100.00
2023-05-04T02:12:07.479Z,100.00
2023-05-04T02:13:09.111Z,100.00
2023-05-04T02:14:10.702Z,100.00
2023-05-04T02:15:12.316Z,99.75
2023-05-04T02:16:13.951Z,99.66
2023-05-04T02:17:15.554Z,99.09
2023-05-04T02:18:17.297Z,98.60
2023-05-04T02:19:18.840Z,98.05
2023-05-04T02:20:20.407Z,98.22
2023-05-04T02:21:21.939Z,98.04
2023-05-04T02:22:23.501Z,97.71
2023-05-04T02:23:25.368Z,97.46
2023-05-04T02:24:26.993Z,97.67
2023-05-04T02:25:28.626Z,97.25
2023-05-04T02:26:30.219Z,96.99
2023-05-04T02:27:31.764Z,96.87
2023-05-04T02:28:33.359Z,97.14
2023-05-04T02:29:34.893Z,97.24
2023-05-04T02:30:36.454Z,98.01
2023-05-04T02:31:38.114Z,97.85
2023-05-04T02:32:39.733Z,98.73
2023-05-04T02:33:41.301Z,99.67
2023-05-04T02:34:42.865Z,100.00
2023-05-04T02:35:44.425Z,100.00
2023-05-04T02:36:47.074Z,100.00
2023-05-04T02:37:48.827Z,100.00
2023-05-04T02:38:51.338Z,100.00
2023-05-04T02:39:52.911Z,100.00
2023-05-04T02:40:54.451Z,100.00
2023-05-04T02:41:55.984Z,100.00
2023-05-04T02:42:57.657Z,100.00
2023-05-04T02:43:59.220Z,100.00
2023-05-04T02:45:01.110Z,100.00
2023-05-04T02:46:02.959Z,100.00
2023-05-04T02:47:05.973Z,100.00
2023-05-04T02:48:07.579Z,100.00
2023-05-04T02:49:09.346Z,100.00
2023-05-04T02:50:11.062Z,100.00
2023-05-04T02:51:12.600Z,100.00
2023-05-04T02:52:14.476Z,100.00
2023-05-04T02:53:16.173Z,100.00
2023-05-04T02:54:17.785Z,100.00
2023-05-04T02:55:19.428Z,100.00
2023-05-04T02:56:21.367Z,100.00
2023-05-04T02:57:22.946Z,100.00
2023-05-04T02:58:24.516Z,100.00
2023-05-04T02:59:26.140Z,100.00
2023-05-04T03:00:27.725Z,100.00
2023-05-04T03:01:29.354Z,100.00
2023-05-04T03:02:31.040Z,100.00
2023-05-04T03:03:32.657Z,100.00
2023-05-04T03:04:34.306Z,100.00
2023-05-04T03:05:35.918Z,100.00
2023-05-04T03:06:37.752Z,100.00
2023-05-04T03:07:39.442Z,100.00
2023-05-04T03:08:41.211Z,100.00
2023-05-04T03:09:44.168Z,99.70
2023-05-04T03:10:46.896Z,99.26
2023-05-04T03:11:48.434Z,99.06
2023-05-04T03:12:50.471Z,99.43
2023-05-04T03:13:52.621Z,99.38
2023-05-04T03:14:54.179Z,99.12
2023-05-04T03:15:55.694Z,99.43
2023-05-04T03:16:58.068Z,99.86
2023-05-04T03:17:59.865Z,99.50
2023-05-04T03:19:01.570Z,100.00
2023-05-04T03:20:03.591Z,99.91
2023-05-04T03:21:05.506Z,99.90
2023-05-04T03:22:07.209Z,100.00
2023-05-04T03:23:08.922Z,100.00
2023-05-04T03:24:11.400Z,100.00
2023-05-04T03:25:12.936Z,100.00
2023-05-04T03:26:14.437Z,100.00
2023-05-04T03:27:16.014Z,100.00
2023-05-04T03:28:17.770Z,100.00
2023-05-04T03:29:19.325Z,100.00
2023-05-04T03:30:21.028Z,100.00
2023-05-04T03:31:22.659Z,100.00
2023-05-04T03:32:24.894Z,100.00
2023-05-04T03:33:26.646Z,100.00
2023-05-04T03:34:28.240Z,100.00
2023-05-04T03:35:29.832Z,100.00
2023-05-04T03:36:31.500Z,100.00
2023-05-04T03:37:33.054Z,100.00
2023-05-04T03:38:34.738Z,100.00
2023-05-04T03:39:36.368Z,100.00
2023-05-04T03:40:38.020Z,99.97
2023-05-04T03:41:39.554Z,99.94
2023-05-04T03:42:41.149Z,99.77
2023-05-04T03:43:42.738Z,100.00
2023-05-04T03:44:44.314Z,100.00
2023-05-04T03:45:46.404Z,100.00
2023-05-04T03:46:47.998Z,100.00
2023-05-04T03:47:49.620Z,100.00
2023-05-04T03:48:51.235Z,100.00
2023-05-04T03:49:52.798Z,100.00
2023-05-04T03:50:54.518Z,100.00
2023-05-04T03:51:56.035Z,100.00
2023-05-04T03:52:57.617Z,100.00
2023-05-04T03:53:59.229Z,100.00
2023-05-04T03:55:00.837Z,100.00
2023-05-04T03:56:03.410Z,100.00
2023-05-04T03:57:05.024Z,100.00
2023-05-04T03:58:07.016Z,100.00
2023-05-04T03:59:08.557Z,99.54
2023-05-04T04:00:10.946Z,99.34
2023-05-04T04:01:12.509Z,99.20
2023-05-04T04:02:14.080Z,99.59
2023-05-04T04:03:15.872Z,99.88
2023-05-04T04:04:17.597Z,100.00
2023-05-04T04:05:19.361Z,100.00
2023-05-04T04:06:22.797Z,100.00
2023-05-04T04:07:24.493Z,100.00
2023-05-04T04:08:26.274Z,100.00
2023-05-04T04:09:28.932Z,100.00
2023-05-04T04:10:31.004Z,100.00
2023-05-04T04:11:32.603Z,100.00
2023-05-04T04:12:34.383Z,100.00
2023-05-04T04:13:36.040Z,100.00
2023-05-04T04:14:37.574Z,100.00
2023-05-04T04:15:40.614Z,100.00
2023-05-04T04:16:43.252Z,100.00
2023-05-04T04:17:44.837Z,100.00
2023-05-04T04:18:46.562Z,100.00
2023-05-04T04:19:48.208Z,100.00
2023-05-04T04:20:50.352Z,100.00
2023-05-04T04:21:51.932Z,100.00
2023-05-04T04:22:53.756Z,100.00
2023-05-04T04:23:55.406Z,100.00
2023-05-04T04:24:56.994Z,100.00
2023-05-04T04:25:58.539Z,100.00
2023-05-04T04:27:00.163Z,100.00
2023-05-04T04:28:01.801Z,100.00
2023-05-04T04:29:03.966Z,100.00
2023-05-04T04:30:06.232Z,100.00
2023-05-04T04:31:08.107Z,100.00
2023-05-04T04:32:09.803Z,100.00
2023-05-04T04:33:12.033Z,100.00
2023-05-04T04:34:16.464Z,100.00
2023-05-04T04:35:18.427Z,100.00
2023-05-04T04:36:20.006Z,100.00
2023-05-04T04:37:21.961Z,100.00
2023-05-04T04:38:23.614Z,100.00
2023-05-04T04:39:25.913Z,100.00
2023-05-04T04:40:28.584Z,100.00
2023-05-04T04:41:31.189Z,100.00
2023-05-04T04:42:34.451Z,100.00
2023-05-04T04:43:36.898Z,100.00
2023-05-04T04:44:39.574Z,100.00
2023-05-04T04:45:41.611Z,100.00
2023-05-04T04:46:44.988Z,100.00
2023-05-04T04:47:47.313Z,100.00
2023-05-04T04:48:49.256Z,100.00
2023-05-04T04:49:50.986Z,100.00
2023-05-04T04:50:52.956Z,100.00
2023-05-04T04:51:54.567Z,100.00
2023-05-04T04:52:56.354Z,100.00
2023-05-04T04:53:57.930Z,100.00
2023-05-04T04:54:59.978Z,100.00
2023-05-04T04:56:01.896Z,100.00
2023-05-04T04:57:04.160Z,100.00
2023-05-04T04:58:06.769Z,100.00
2023-05-04T04:59:08.339Z,100.00
2023-05-04T05:00:10.552Z,100.00
2023-05-04T05:01:18.095Z,99.63
2023-05-04T05:02:20.187Z,99.93
2023-05-04T05:03:21.948Z,99.53
2023-05-04T05:04:23.976Z,99.20
2023-05-04T05:05:25.639Z,99.27
2023-05-04T05:06:27.201Z,98.46
2023-05-04T05:07:28.766Z,98.77
2023-05-04T05:08:32.770Z,99.14
2023-05-04T05:09:35.352Z,99.81
2023-05-04T05:10:36.876Z,100.00
2023-05-04T05:11:38.628Z,100.00
2023-05-04T05:12:40.563Z,100.00
2023-05-04T05:13:42.197Z,100.00
2023-05-04T05:14:44.501Z,100.00
2023-05-04T05:15:46.060Z,100.00
2023-05-04T05:16:47.602Z,100.00
2023-05-04T05:17:49.221Z,100.00
2023-05-04T05:18:50.944Z,100.00
2023-05-04T05:19:52.626Z,100.00
2023-05-04T05:20:54.191Z,100.00
2023-05-04T05:21:57.078Z,100.00
2023-05-04T05:22:58.846Z,100.00
2023-05-04T05:24:01.743Z,100.00
2023-05-04T05:25:04.425Z,100.00
2023-05-04T05:26:06.388Z,100.00
2023-05-04T05:27:08.376Z,100.00
2023-05-04T05:28:10.364Z,100.00
2023-05-04T05:29:11.952Z,100.00
2023-05-04T05:30:13.911Z,100.00
2023-05-04T05:31:15.633Z,100.00
2023-05-04T05:32:17.242Z,100.00
2023-05-04T05:33:19.066Z,100.00
2023-05-04T05:34:20.683Z,100.00
2023-05-04T05:35:22.277Z,100.00
2023-05-04T05:36:23.778Z,100.00
2023-05-04T05:37:25.413Z,100.00
2023-05-04T05:38:26.982Z,100.00
2023-05-04T05:39:28.918Z,100.00
2023-05-04T05:40:30.559Z,100.00
2023-05-04T05:41:32.157Z,100.00
2023-05-04T05:42:33.945Z,100.00
2023-05-04T05:43:37.160Z,100.00
2023-05-04T05:44:38.853Z,100.00
2023-05-04T05:45:40.393Z,100.00
2023-05-04T05:46:42.056Z,100.00
2023-05-04T05:47:43.735Z,100.00
2023-05-04T05:48:45.362Z,100.00
2023-05-04T05:49:46.956Z,100.00
2023-05-04T05:50:48.486Z,100.00
2023-05-04T05:51:50.111Z,100.00
2023-05-04T05:52:51.742Z,100.00
2023-05-04T05:53:53.315Z,100.00
2023-05-04T05:54:55.106Z,100.00
2023-05-04T05:55:56.655Z,100.00
2023-05-04T05:56:58.915Z,100.00
2023-05-04T05:58:00.495Z,100.00
2023-05-04T05:59:02.253Z,100.00
2023-05-04T06:00:05.469Z,100.00
2023-05-04T06:01:07.185Z,100.00
2023-05-04T06:02:08.860Z,100.00
2023-05-04T06:03:10.556Z,100.00
2023-05-04T06:04:12.323Z,100.00
2023-05-04T06:05:13.988Z,100.00
2023-05-04T06:06:15.683Z,100.00
2023-05-04T06:07:17.788Z,100.00
2023-05-04T06:08:19.434Z,100.00
2023-05-04T06:09:21.200Z,100.00
2023-05-04T06:10:22.756Z,100.00
2023-05-04T06:11:24.308Z,100.00
2023-05-04T06:12:25.858Z,100.00
2023-05-04T06:13:27.402Z,100.00
2023-05-04T06:14:28.958Z,99.89
2023-05-04T06:15:30.790Z,99.45
2023-05-04T06:16:32.419Z,99.06
2023-05-04T06:17:34.038Z,99.15
2023-05-04T06:18:35.948Z,99.01
2023-05-04T06:19:38.358Z,98.57
2023-05-04T06:20:39.927Z,98.08
2023-05-04T06:21:41.466Z,97.95
2023-05-04T06:22:42.969Z,97.75
2023-05-04T06:23:44.764Z,97.41
2023-05-04T06:24:46.702Z,97.39
2023-05-04T06:25:48.362Z,97.46
2023-05-04T06:26:50.327Z,98.22
2023-05-04T06:27:52.029Z,98.34
2023-05-04T06:28:53.625Z,98.93
2023-05-04T06:29:55.231Z,99.04
2023-05-04T06:30:56.774Z,99.92
2023-05-04T06:31:59.035Z,97.89
2023-05-04T06:33:00.759Z,99.40
2023-05-04T06:34:02.420Z,100.00
2023-05-04T06:35:04.360Z,100.00
2023-05-04T06:36:06.447Z,98.68
2023-05-04T06:37:07.977Z,100.00
2023-05-04T06:38:09.555Z,100.00
2023-05-04T06:39:11.412Z,100.00
2023-05-04T06:40:13.851Z,99.12
2023-05-04T06:41:15.625Z,97.35
2023-05-04T06:42:17.244Z,98.54
2023-05-04T06:43:18.825Z,99.99
2023-05-04T06:44:20.357Z,99.60
2023-05-04T06:45:21.948Z,98.07
2023-05-04T06:46:23.498Z,98.72
2023-05-04T06:47:25.191Z,96.84
2023-05-04T06:48:27.373Z,98.28
2023-05-04T06:49:31.884Z,98.59
2023-05-04T06:50:33.578Z,98.80
2023-05-04T06:51:37.568Z,97.71
2023-05-04T06:52:40.968Z,98.67
2023-05-04T06:53:42.538Z,98.48
2023-05-04T06:54:44.182Z,100.00
2023-05-04T06:55:45.749Z,99.08
2023-05-04T06:56:47.715Z,98.78
2023-05-04T06:57:51.092Z,100.00
2023-05-04T06:58:52.902Z,99.78
2023-05-04T06:59:54.444Z,99.61
2023-05-04T07:00:55.980Z,100.00
2023-05-04T07:01:57.904Z,100.00
2023-05-04T07:02:59.572Z,99.05
2023-05-04T07:04:01.406Z,98.32
2023-05-04T07:05:03.764Z,100.00
2023-05-04T07:06:05.372Z,98.96
2023-05-04T07:07:06.951Z,99.38
2023-05-04T07:08:09.758Z,100.00
2023-05-04T07:09:11.430Z,99.72
2023-05-04T07:10:15.318Z,100.00
2023-05-04T07:11:16.883Z,100.00
2023-05-04T07:12:18.722Z,97.98
2023-05-04T07:13:20.418Z,95.87
2023-05-04T07:14:21.966Z,96.47
2023-05-04T07:15:23.497Z,98.52
2023-05-04T07:16:26.345Z,100.00
2023-05-04T07:17:28.213Z,96.51
2023-05-04T07:18:29.737Z,96.35
2023-05-04T07:19:31.340Z,96.27
2023-05-04T07:20:33.068Z,98.60
2023-05-04T07:21:35.014Z,96.18
2023-05-04T07:22:36.616Z,92.74
2023-05-04T07:23:38.331Z,92.95
2023-05-04T07:24:39.866Z,96.15
2023-05-04T07:25:41.494Z,93.88
2023-05-04T07:26:43.081Z,92.27
2023-05-04T07:27:45.150Z,92.12
2023-05-04T07:28:46.803Z,91.30
2023-05-04T07:29:48.448Z,91.82
2023-05-04T07:30:50.265Z,89.48
2023-05-04T07:31:52.015Z,86.77
2023-05-04T07:32:53.707Z,88.08
2023-05-04T07:33:55.331Z,90.71
2023-05-04T07:34:56.886Z,91.35
2023-05-04T07:35:59.267Z,90.08
2023-05-04T07:37:00.789Z,89.90
2023-05-04T07:38:03.142Z,90.33
2023-05-04T07:39:04.712Z,91.25
2023-05-04T07:40:07.676Z,91.99
2023-05-04T07:41:10.366Z,91.86
2023-05-04T07:42:11.951Z,90.67
2023-05-04T07:43:13.482Z,88.01
2023-05-04T07:44:15.047Z,89.39
2023-05-04T07:45:17.566Z,87.62
2023-05-04T07:46:19.275Z,86.77
2023-05-04T07:47:20.999Z,88.00
2023-05-04T07:48:24.641Z,89.21
2023-05-04T07:49:27.946Z,85.72
2023-05-04T07:50:29.994Z,86.40
2023-05-04T07:51:31.682Z,86.92
2023-05-04T07:52:33.310Z,83.35
2023-05-04T07:53:34.970Z,84.50
2023-05-04T07:54:36.546Z,87.95
2023-05-04T07:55:38.173Z,88.37
2023-05-04T07:56:39.694Z,87.53
2023-05-04T07:57:41.357Z,88.03
2023-05-04T07:58:42.947Z,86.43
2023-05-04T07:59:44.493Z,87.90
2023-05-04T08:00:46.301Z,88.73
2023-05-04T08:01:48.023Z,89.22
2023-05-04T08:02:49.814Z,91.35
2023-05-04T08:03:51.431Z,90.76
2023-05-04T08:04:53.016Z,88.57
2023-05-04T08:05:54.595Z,90.19
2023-05-04T08:06:56.141Z,90.25
2023-05-04T08:07:57.735Z,86.70
2023-05-04T08:08:59.247Z,89.12
2023-05-04T08:10:00.924Z,87.18
2023-05-04T08:11:15.909Z,87.26
2023-05-04T08:12:20.609Z,85.55
2023-05-04T08:13:22.240Z,83.70
2023-05-04T08:14:23.871Z,84.54
2023-05-04T08:15:25.683Z,84.98
2023-05-04T08:16:29.214Z,82.50
2023-05-04T08:17:30.914Z,83.58
2023-05-04T08:18:32.530Z,84.49
2023-05-04T08:19:34.231Z,85.41
2023-05-04T08:20:35.791Z,83.68
2023-05-04T08:21:37.410Z,84.98
2023-05-04T08:22:39.264Z,82.03
2023-05-04T08:23:40.819Z,81.43
2023-05-04T08:24:42.514Z,81.57
2023-05-04T08:25:44.108Z,81.25
2023-05-04T08:26:52.676Z,77.71
2023-05-04T08:28:06.552Z,77.96
2023-05-04T08:29:10.592Z,80.39
2023-05-04T08:30:12.796Z,79.05
2023-05-04T08:31:14.426Z,80.53
2023-05-04T08:32:16.055Z,78.50
2023-05-04T08:33:17.638Z,80.91
2023-05-04T08:34:19.184Z,78.95
2023-05-04T08:35:21.293Z,78.32
2023-05-04T08:36:22.871Z,78.48
2023-05-04T08:37:24.460Z,78.15
2023-05-04T08:38:26.240Z,79.35
2023-05-04T08:39:27.813Z,78.77
2023-05-04T08:40:29.553Z,80.03
2023-05-04T08:41:31.375Z,81.85
2023-05-04T08:42:34.492Z,78.95
2023-05-04T08:43:36.861Z,79.72
2023-05-04T08:44:38.529Z,78.66
2023-05-04T08:45:40.288Z,78.67
2023-05-04T08:46:42.598Z,78.80
2023-05-04T08:47:45.104Z,76.39
2023-05-04T08:48:47.306Z,78.64
2023-05-04T08:49:49.682Z,74.58
2023-05-04T08:50:51.430Z,75.00
2023-05-04T08:51:53.061Z,75.66
2023-05-04T08:52:55.985Z,76.37
2023-05-04T08:53:58.798Z,76.20
2023-05-04T08:55:01.216Z,74.51
2023-05-04T08:56:07.763Z,75.92
2023-05-04T08:57:09.443Z,77.01
2023-05-04T08:58:12.943Z,76.66
2023-05-04T08:59:20.312Z,73.43
2023-05-04T09:00:23.224Z,74.27
2023-05-04T09:01:25.292Z,74.91
2023-05-04T09:02:28.126Z,73.99
2023-05-04T09:03:30.683Z,73.04
2023-05-04T09:04:32.402Z,74.92
2023-05-04T09:05:34.675Z,73.70
2023-05-04T09:06:36.384Z,73.55
2023-05-04T09:07:38.143Z,73.86
2023-05-04T09:08:40.142Z,71.43
2023-05-04T09:09:42.059Z,70.89
2023-05-04T09:10:43.635Z,71.49
2023-05-04T09:11:45.269Z,72.92
2023-05-04T09:12:47.298Z,74.13
2023-05-04T09:13:48.850Z,70.19
2023-05-04T09:14:50.473Z,72.43
2023-05-04T09:15:55.943Z,71.81
2023-05-04T09:16:57.707Z,71.35
2023-05-04T09:18:03.094Z,75.06
2023-05-04T09:19:16.303Z,75.96
2023-05-04T09:20:17.897Z,75.46
2023-05-04T09:21:29.357Z,72.22
2023-05-04T09:22:31.563Z,69.95
2023-05-04T09:23:33.735Z,69.49
2023-05-04T09:24:35.302Z,71.15
2023-05-04T09:25:54.137Z,71.34
2023-05-04T09:26:56.035Z,68.75
2023-05-04T09:27:57.569Z,69.84
2023-05-04T09:29:15.270Z,67.82
2023-05-04T09:30:21.493Z,68.34
2023-05-04T09:31:23.787Z,69.10
2023-05-04T09:32:25.553Z,70.92
2023-05-04T09:33:27.563Z,69.46
2023-05-04T09:34:29.620Z,69.20
2023-05-04T09:35:34.042Z,68.29
2023-05-04T09:36:36.019Z,68.57
2023-05-04T09:37:46.061Z,68.34
2023-05-04T09:38:47.862Z,68.81
2023-05-04T09:39:51.751Z,70.41
2023-05-04T09:40:53.293Z,72.02
2023-05-04T09:41:55.395Z,70.34
2023-05-04T09:42:57.884Z,70.36
2023-05-04T09:43:59.450Z,70.35
2023-05-04T09:45:08.132Z,69.46
2023-05-04T09:46:19.437Z,70.33
2023-05-04T09:47:21.417Z,68.07
2023-05-04T09:48:29.393Z,67.98
2023-05-04T09:49:35.269Z,68.83
2023-05-04T09:50:40.076Z,69.56
2023-05-04T09:51:42.182Z,68.91
2023-05-04T09:52:45.411Z,69.11
2023-05-04T09:53:49.254Z,69.18
2023-05-04T09:54:50.958Z,67.18
2023-05-04T09:56:17.907Z,68.40
2023-05-04T09:57:22.875Z,70.26
2023-05-04T09:58:29.523Z,68.87
2023-05-04T09:59:34.585Z,68.62
2023-05-04T10:00:36.454Z,69.84
2023-05-04T10:01:38.236Z,69.71
2023-05-04T10:02:40.741Z,70.16
2023-05-04T10:03:44.037Z,71.09
2023-05-04T10:04:45.804Z,72.77
2023-05-04T10:05:49.131Z,72.72
2023-05-04T10:06:50.828Z,72.39
2023-05-04T10:07:52.705Z,72.41
2023-05-04T10:08:54.301Z,70.15
2023-05-04T10:09:58.854Z,64.35
2023-05-04T10:11:00.581Z,62.81
2023-05-04T10:12:05.810Z,67.07
2023-05-04T10:13:07.427Z,69.13
2023-05-04T10:14:09.444Z,69.66
2023-05-04T10:15:12.426Z,73.41
2023-05-04T10:16:40.318Z,68.30
2023-05-04T10:18:20.116Z,72.70
2023-05-04T10:19:57.909Z,70.15
2023-05-04T10:21:15.520Z,72.51
2023-05-04T10:22:51.245Z,66.84
2023-05-04T10:24:04.936Z,69.94
2023-05-04T10:25:35.287Z,70.04
2023-05-04T10:26:50.235Z,68.83
2023-05-04T10:28:02.315Z,66.73
2023-05-04T10:29:23.100Z,63.62
2023-05-04T10:30:25.367Z,67.70
2023-05-04T10:31:40.371Z,64.83
2023-05-04T10:32:42.300Z,65.62
2023-05-04T10:33:44.123Z,66.46
2023-05-04T10:34:45.858Z,66.01
2023-05-04T10:35:54.325Z,66.04
2023-05-04T10:36:56.423Z,64.37
2023-05-04T10:37:59.075Z,67.27
2023-05-04T10:39:01.433Z,69.85
2023-05-04T10:40:08.918Z,74.70
2023-05-04T10:41:18.842Z,71.14
2023-05-04T10:42:21.008Z,71.97
2023-05-04T10:43:28.973Z,67.03
2023-05-04T10:44:32.645Z,69.32
2023-05-04T10:45:44.089Z,67.44
2023-05-04T10:46:59.807Z,68.17
2023-05-04T10:48:02.414Z,69.94
2023-05-04T10:49:16.186Z,69.75
2023-05-04T10:50:17.809Z,67.81
2023-05-04T10:51:26.529Z,66.10
2023-05-04T10:52:54.099Z,64.98
2023-05-04T10:53:55.779Z,67.74
2023-05-04T10:55:02.228Z,64.52
2023-05-04T10:56:04.339Z,61.18
2023-05-04T10:57:11.293Z,63.79
2023-05-04T10:58:16.571Z,66.89
2023-05-04T10:59:19.195Z,65.33
2023-05-04T11:00:21.506Z,63.16
2023-05-04T11:01:23.212Z,62.34
2023-05-04T11:02:26.573Z,62.29
2023-05-04T11:03:39.485Z,62.36
2023-05-04T11:04:41.247Z,64.02
2023-05-04T11:05:47.987Z,61.28
2023-05-04T11:07:00.607Z,61.65
2023-05-04T11:08:26.418Z,60.92
2023-05-04T11:09:34.671Z,60.97
2023-05-04T11:10:36.373Z,62.70
2023-05-04T11:11:38.581Z,62.12
2023-05-04T11:12:40.247Z,64.14
2023-05-04T11:13:46.608Z,63.11
2023-05-04T11:14:48.260Z,66.32
2023-05-04T11:15:51.980Z,66.51
2023-05-04T11:17:12.699Z,66.27
2023-05-04T11:18:28.686Z,67.01
2023-05-04T11:19:30.238Z,67.17
2023-05-04T11:20:31.916Z,62.34
2023-05-04T11:21:33.613Z,60.06
2023-05-04T11:22:37.099Z,60.45
2023-05-04T11:23:39.301Z,62.32
2023-05-04T11:24:46.195Z,62.47
2023-05-04T11:25:47.743Z,65.55
2023-05-04T11:26:49.699Z,62.09
2023-05-04T11:27:51.849Z,61.20
2023-05-04T11:28:53.620Z,62.47
2023-05-04T11:29:59.669Z,62.27
2023-05-04T11:31:01.315Z,63.29
2023-05-04T11:32:04.532Z,64.36
2023-05-04T11:33:14.026Z,62.67
2023-05-04T11:34:19.953Z,66.07
2023-05-04T11:35:25.150Z,64.67
2023-05-04T11:36:27.284Z,60.20
2023-05-04T11:37:29.462Z,62.28
2023-05-04T11:38:31.275Z,62.36
2023-05-04T11:39:33.658Z,61.21
2023-05-04T11:40:36.427Z,62.87
2023-05-04T11:41:38.392Z,62.05
2023-05-04T11:42:41.130Z,62.81
2023-05-04T11:43:45.123Z,63.63
2023-05-04T11:44:46.992Z,62.71
2023-05-04T11:45:48.967Z,62.42
2023-05-04T11:46:51.767Z,61.75
2023-05-04T11:47:56.575Z,61.81
2023-05-04T11:48:59.639Z,62.49
2023-05-04T11:50:01.378Z,61.87
2023-05-04T11:51:04.505Z,61.71
2023-05-04T11:52:10.139Z,62.67
2023-05-04T11:53:13.844Z,60.26
2023-05-04T11:54:24.736Z,59.75
2023-05-04T11:55:28.635Z,61.03
2023-05-04T11:56:40.893Z,62.62
2023-05-04T11:57:42.456Z,62.50
2023-05-04T11:58:44.173Z,61.10
2023-05-04T11:59:49.516Z,62.12
2023-05-04T12:00:56.166Z,59.69
2023-05-04T12:01:57.775Z,59.43
2023-05-04T12:03:00.801Z,59.44
2023-05-04T12:04:02.870Z,59.77
2023-05-04T12:05:12.365Z,60.57
2023-05-04T12:06:14.013Z,61.41
2023-05-04T12:07:16.009Z,60.26
2023-05-04T12:08:41.820Z,60.38
2023-05-04T12:09:50.122Z,59.26
2023-05-04T12:11:16.016Z,60.03
2023-05-04T12:12:20.429Z,60.21
2023-05-04T12:13:22.231Z,60.38
2023-05-04T12:14:24.722Z,59.52
2023-05-04T12:15:31.581Z,59.07
2023-05-04T12:16:33.731Z,59.16
2023-05-04T12:17:44.254Z,59.96
2023-05-04T12:18:47.405Z,61.19
2023-05-04T12:19:56.483Z,62.13
2023-05-04T12:21:27.511Z,64.39
2023-05-04T12:22:30.331Z,63.55
2023-05-04T12:23:31.912Z,62.87
2023-05-04T12:24:33.660Z,62.86
2023-05-04T12:25:41.334Z,62.66
2023-05-04T12:26:49.553Z,62.29
2023-05-04T12:27:51.552Z,64.08
2023-05-04T12:28:53.599Z,61.40
2023-05-04T12:29:55.209Z,63.01
2023-05-04T12:30:57.354Z,62.19
2023-05-04T12:31:58.979Z,61.86
2023-05-04T12:33:00.619Z,60.88
2023-05-04T12:34:05.786Z,60.96
2023-05-04T12:35:08.038Z,61.14
2023-05-04T12:36:10.296Z,62.90
2023-05-04T12:37:11.875Z,63.53
2023-05-04T12:38:13.638Z,62.72
2023-05-04T12:39:15.219Z,60.82
2023-05-04T12:40:27.706Z,60.40
2023-05-04T12:41:31.535Z,60.10
2023-05-04T12:42:33.399Z,59.92
2023-05-04T12:43:34.949Z,59.60
2023-05-04T12:44:36.637Z,60.55
2023-05-04T12:45:38.215Z,59.03
2023-05-04T12:46:40.145Z,60.05
2023-05-04T12:47:41.700Z,58.74
2023-05-04T12:48:43.299Z,59.96
2023-05-04T12:49:44.843Z,58.67
2023-05-04T12:50:48.822Z,58.05
2023-05-04T12:51:51.790Z,62.70
2023-05-04T12:52:53.351Z,59.78
2023-05-04T12:53:55.745Z,61.45
2023-05-04T12:54:57.270Z,59.62
2023-05-04T12:56:00.567Z,59.81
2023-05-04T12:57:02.482Z,60.22
2023-05-04T12:58:04.247Z,59.45
2023-05-04T12:59:06.115Z,59.72
2023-05-04T13:00:10.007Z,59.44
2023-05-04T13:01:11.573Z,59.89
2023-05-04T13:02:13.152Z,61.42
2023-05-04T13:03:17.138Z,63.03
2023-05-04T13:04:19.055Z,62.17
2023-05-04T13:05:22.821Z,63.03
2023-05-04T13:06:24.505Z,61.04
2023-05-04T13:07:26.094Z,60.98
2023-05-04T13:08:27.757Z,62.62
2023-05-04T13:09:29.436Z,61.73
2023-05-04T13:10:31.409Z,61.46
2023-05-04T13:11:33.067Z,60.78
2023-05-04T13:12:34.720Z,61.85
2023-05-04T13:13:36.282Z,61.26
2023-05-04T13:14:40.062Z,60.96
2023-05-04T13:15:42.563Z,59.95
2023-05-04T13:16:44.178Z,65.39
2023-05-04T13:17:45.753Z,63.19
2023-05-04T13:18:47.398Z,63.49
2023-05-04T13:19:49.074Z,61.64
2023-05-04T13:20:53.743Z,60.94
2023-05-04T13:21:55.908Z,61.04
2023-05-04T13:22:58.536Z,61.98
2023-05-04T13:24:00.473Z,62.47
2023-05-04T13:25:02.207Z,62.56
2023-05-04T13:26:03.956Z,63.67